sensor_id;sensor_type;location;lat;lon;timestamp;P1;durP1;ratioP1;P2;durP2;ratioP2
83115;SDS011;72996;40.206;44.498;2024-03-29T00:00:45;13.60;;;5.95;;
83115;SDS011;72996;40.206;44.498;2024-03-29T00:03:11;13.95;;;5.40;;
83115;SDS011;72996;40.206;44.498;2024-03-29T00:05:37;15.27;;;6.32;;
83115;SDS011;72996;40.206;44.498;2024-03-29T00:08:03;13.75;;;5.53;;
83115;SDS011;72996;40.206;44.498;2024-03-29T00:10:30;13.75;;;6.38;;
83115;SDS011;72996;40.206;44.498;2024-03-29T00:12:56;17.30;;;6.63;;
83115;SDS011;72996;40.206;44.498;2024-03-29T00:15:21;14.45;;;5.93;;
83115;SDS011;72996;40.206;44.498;2024-03-29T00:17:47;16.58;;;6.60;;
83115;SDS011;72996;40.206;44.498;2024-03-29T00:20:13;12.45;;;5.70;;
83115;SDS011;72996;40.206;44.498;2024-03-29T00:22:39;10.60;;;5.97;;
83115;SDS011;72996;40.206;44.498;2024-03-29T00:25:04;11.85;;;5.72;;
83115;SDS011;72996;40.206;44.498;2024-03-29T00:27:30;13.48;;;6.22;;
83115;SDS011;72996;40.206;44.498;2024-03-29T00:29:57;13.25;;;6.68;;
83115;SDS011;72996;40.206;44.498;2024-03-29T00:32:23;14.25;;;6.43;;
83115;SDS011;72996;40.206;44.498;2024-03-29T00:34:51;13.73;;;6.78;;
83115;SDS011;72996;40.206;44.498;2024-03-29T00:37:18;17.52;;;7.32;;
83115;SDS011;72996;40.206;44.498;2024-03-29T00:39:47;19.73;;;7.65;;
83115;SDS011;72996;40.206;44.498;2024-03-29T00:42:13;19.58;;;7.68;;
83115;SDS011;72996;40.206;44.498;2024-03-29T00:44:40;16.42;;;6.95;;
83115;SDS011;72996;40.206;44.498;2024-03-29T00:47:07;16.25;;;6.78;;
83115;SDS011;72996;40.206;44.498;2024-03-29T00:49:33;13.93;;;7.15;;
83115;SDS011;72996;40.206;44.498;2024-03-29T00:51:59;21.38;;;7.47;;
83115;SDS011;72996;40.206;44.498;2024-03-29T00:54:25;17.70;;;6.88;;
83115;SDS011;72996;40.206;44.498;2024-03-29T00:56:51;20.52;;;7.97;;
83115;SDS011;72996;40.206;44.498;2024-03-29T00:59:19;18.90;;;7.43;;
83115;SDS011;72996;40.206;44.498;2024-03-29T01:01:46;21.65;;;7.50;;
83115;SDS011;72996;40.206;44.498;2024-03-29T01:04:11;19.55;;;8.00;;
83115;SDS011;72996;40.206;44.498;2024-03-29T01:06:37;20.88;;;7.72;;
83115;SDS011;72996;40.206;44.498;2024-03-29T01:09:04;21.83;;;8.18;;
83115;SDS011;72996;40.206;44.498;2024-03-29T01:11:30;21.73;;;8.07;;
83115;SDS011;72996;40.206;44.498;2024-03-29T01:13:56;15.32;;;7.57;;
83115;SDS011;72996;40.206;44.498;2024-03-29T01:16:22;17.00;;;8.15;;
83115;SDS011;72996;40.206;44.498;2024-03-29T01:18:49;16.75;;;7.85;;
83115;SDS011;72996;40.206;44.498;2024-03-29T01:23:43;19.73;;;7.55;;
83115;SDS011;72996;40.206;44.498;2024-03-29T01:26:09;20.83;;;8.25;;
83115;SDS011;72996;40.206;44.498;2024-03-29T01:28:38;22.13;;;8.68;;
83115;SDS011;72996;40.206;44.498;2024-03-29T01:31:04;19.85;;;9.38;;
83115;SDS011;72996;40.206;44.498;2024-03-29T01:33:30;26.30;;;10.15;;
83115;SDS011;72996;40.206;44.498;2024-03-29T01:36:02;25.85;;;9.70;;
83115;SDS011;72996;40.206;44.498;2024-03-29T01:38:34;21.25;;;9.38;;
83115;SDS011;72996;40.206;44.498;2024-03-29T01:40:59;25.63;;;9.70;;
83115;SDS011;72996;40.206;44.498;2024-03-29T01:43:25;26.67;;;10.48;;
83115;SDS011;72996;40.206;44.498;2024-03-29T01:45:54;28.05;;;9.68;;
83115;SDS011;72996;40.206;44.498;2024-03-29T01:48:24;26.00;;;9.32;;
83115;SDS011;72996;40.206;44.498;2024-03-29T01:50:53;24.88;;;9.93;;
83115;SDS011;72996;40.206;44.498;2024-03-29T01:53:20;19.85;;;8.30;;
83115;SDS011;72996;40.206;44.498;2024-03-29T01:55:47;20.15;;;8.20;;
83115;SDS011;72996;40.206;44.498;2024-03-29T01:58:13;18.48;;;8.05;;
83115;SDS011;72996;40.206;44.498;2024-03-29T02:00:55;18.58;;;8.73;;
83115;SDS011;72996;40.206;44.498;2024-03-29T02:03:23;16.75;;;7.35;;
83115;SDS011;72996;40.206;44.498;2024-03-29T02:05:49;18.30;;;7.63;;
83115;SDS011;72996;40.206;44.498;2024-03-29T02:08:15;18.30;;;7.63;;
83115;SDS011;72996;40.206;44.498;2024-03-29T02:10:42;22.98;;;8.18;;
83115;SDS011;72996;40.206;44.498;2024-03-29T02:13:12;19.95;;;7.63;;
83115;SDS011;72996;40.206;44.498;2024-03-29T02:15:39;17.25;;;7.28;;
83115;SDS011;72996;40.206;44.498;2024-03-29T02:18:05;15.93;;;7.50;;
83115;SDS011;72996;40.206;44.498;2024-03-29T02:20:32;20.95;;;8.02;;
83115;SDS011;72996;40.206;44.498;2024-03-29T02:23:04;16.98;;;6.95;;
83115;SDS011;72996;40.206;44.498;2024-03-29T02:25:35;28.00;;;8.27;;
83115;SDS011;72996;40.206;44.498;2024-03-29T02:28:01;19.95;;;7.60;;
83115;SDS011;72996;40.206;44.498;2024-03-29T02:30:28;22.15;;;8.40;;
83115;SDS011;72996;40.206;44.498;2024-03-29T02:32:56;21.00;;;7.32;;
83115;SDS011;72996;40.206;44.498;2024-03-29T02:35:22;22.55;;;7.97;;
83115;SDS011;72996;40.206;44.498;2024-03-29T02:37:47;20.02;;;7.13;;
83115;SDS011;72996;40.206;44.498;2024-03-29T02:40:13;16.75;;;6.03;;
83115;SDS011;72996;40.206;44.498;2024-03-29T02:42:39;14.70;;;6.20;;
83115;SDS011;72996;40.206;44.498;2024-03-29T02:45:05;18.85;;;6.47;;
83115;SDS011;72996;40.206;44.498;2024-03-29T02:47:31;14.23;;;6.30;;
83115;SDS011;72996;40.206;44.498;2024-03-29T02:49:56;15.02;;;6.40;;
83115;SDS011;72996;40.206;44.498;2024-03-29T02:52:22;15.93;;;5.95;;
83115;SDS011;72996;40.206;44.498;2024-03-29T02:54:48;12.88;;;6.55;;
83115;SDS011;72996;40.206;44.498;2024-03-29T02:57:13;15.77;;;6.32;;
83115;SDS011;72996;40.206;44.498;2024-03-29T02:59:39;16.95;;;6.25;;
83115;SDS011;72996;40.206;44.498;2024-03-29T03:02:05;15.90;;;6.13;;
83115;SDS011;72996;40.206;44.498;2024-03-29T03:04:31;14.65;;;5.40;;
83115;SDS011;72996;40.206;44.498;2024-03-29T03:06:57;15.43;;;5.88;;
83115;SDS011;72996;40.206;44.498;2024-03-29T03:09:42;17.20;;;5.85;;
83115;SDS011;72996;40.206;44.498;2024-03-29T03:12:26;16.77;;;5.70;;
83115;SDS011;72996;40.206;44.498;2024-03-29T03:14:54;15.82;;;5.63;;
83115;SDS011;72996;40.206;44.498;2024-03-29T03:17:19;13.55;;;5.53;;
83115;SDS011;72996;40.206;44.498;2024-03-29T03:19:45;11.20;;;5.38;;
83115;SDS011;72996;40.206;44.498;2024-03-29T03:22:10;14.73;;;6.00;;
83115;SDS011;72996;40.206;44.498;2024-03-29T03:24:36;14.77;;;5.38;;
83115;SDS011;72996;40.206;44.498;2024-03-29T03:27:02;16.55;;;6.28;;
83115;SDS011;72996;40.206;44.498;2024-03-29T03:29:28;16.33;;;6.53;;
83115;SDS011;72996;40.206;44.498;2024-03-29T03:31:54;12.75;;;6.18;;
83115;SDS011;72996;40.206;44.498;2024-03-29T03:34:20;14.55;;;5.75;;
83115;SDS011;72996;40.206;44.498;2024-03-29T03:36:45;13.52;;;5.63;;
83115;SDS011;72996;40.206;44.498;2024-03-29T03:39:11;11.60;;;5.35;;
83115;SDS011;72996;40.206;44.498;2024-03-29T03:41:37;14.50;;;6.05;;
83115;SDS011;72996;40.206;44.498;2024-03-29T03:44:02;16.60;;;6.10;;
83115;SDS011;72996;40.206;44.498;2024-03-29T03:46:28;15.02;;;6.30;;
83115;SDS011;72996;40.206;44.498;2024-03-29T03:48:54;14.48;;;6.15;;
83115;SDS011;72996;40.206;44.498;2024-03-29T03:51:19;14.43;;;6.68;;
83115;SDS011;72996;40.206;44.498;2024-03-29T03:53:45;18.23;;;6.85;;
83115;SDS011;72996;40.206;44.498;2024-03-29T03:56:11;17.15;;;6.43;;
83115;SDS011;72996;40.206;44.498;2024-03-29T03:58:37;15.38;;;6.72;;
83115;SDS011;72996;40.206;44.498;2024-03-29T04:01:05;15.63;;;7.05;;
83115;SDS011;72996;40.206;44.498;2024-03-29T04:03:31;16.73;;;6.82;;
83115;SDS011;72996;40.206;44.498;2024-03-29T04:05:57;17.80;;;7.43;;
83115;SDS011;72996;40.206;44.498;2024-03-29T04:08:22;20.13;;;8.45;;
83115;SDS011;72996;40.206;44.498;2024-03-29T04:10:48;16.73;;;7.75;;
83115;SDS011;72996;40.206;44.498;2024-03-29T04:13:14;18.55;;;8.13;;
83115;SDS011;72996;40.206;44.498;2024-03-29T04:15:40;18.27;;;8.50;;
83115;SDS011;72996;40.206;44.498;2024-03-29T04:18:05;15.65;;;7.50;;
83115;SDS011;72996;40.206;44.498;2024-03-29T04:20:32;17.30;;;8.10;;
83115;SDS011;72996;40.206;44.498;2024-03-29T04:22:57;19.95;;;8.25;;
83115;SDS011;72996;40.206;44.498;2024-03-29T04:25:23;16.55;;;7.40;;
83115;SDS011;72996;40.206;44.498;2024-03-29T04:27:49;14.18;;;7.05;;
83115;SDS011;72996;40.206;44.498;2024-03-29T04:30:14;13.88;;;6.53;;
83115;SDS011;72996;40.206;44.498;2024-03-29T04:32:40;15.52;;;7.53;;
83115;SDS011;72996;40.206;44.498;2024-03-29T04:35:06;16.55;;;7.85;;
83115;SDS011;72996;40.206;44.498;2024-03-29T04:37:32;18.38;;;7.82;;
83115;SDS011;72996;40.206;44.498;2024-03-29T04:39:57;15.52;;;7.07;;
83115;SDS011;72996;40.206;44.498;2024-03-29T04:42:23;14.13;;;6.50;;
83115;SDS011;72996;40.206;44.498;2024-03-29T04:44:49;17.10;;;7.40;;
83115;SDS011;72996;40.206;44.498;2024-03-29T04:47:14;13.35;;;6.75;;
83115;SDS011;72996;40.206;44.498;2024-03-29T04:49:40;14.65;;;6.78;;
83115;SDS011;72996;40.206;44.498;2024-03-29T04:52:06;15.60;;;7.15;;
83115;SDS011;72996;40.206;44.498;2024-03-29T04:54:32;15.07;;;7.15;;
83115;SDS011;72996;40.206;44.498;2024-03-29T04:57:01;16.48;;;6.93;;
83115;SDS011;72996;40.206;44.498;2024-03-29T04:59:28;14.32;;;6.30;;
83115;SDS011;72996;40.206;44.498;2024-03-29T05:01:55;13.57;;;6.57;;
83115;SDS011;72996;40.206;44.498;2024-03-29T05:04:22;17.00;;;7.00;;
83115;SDS011;72996;40.206;44.498;2024-03-29T05:06:54;13.48;;;7.10;;
83115;SDS011;72996;40.206;44.498;2024-03-29T05:09:21;16.38;;;6.40;;
83115;SDS011;72996;40.206;44.498;2024-03-29T05:11:47;19.63;;;7.88;;
83115;SDS011;72996;40.206;44.498;2024-03-29T05:14:14;15.73;;;7.50;;
83115;SDS011;72996;40.206;44.498;2024-03-29T05:16:44;15.98;;;7.80;;
83115;SDS011;72996;40.206;44.498;2024-03-29T05:19:10;15.95;;;7.15;;
83115;SDS011;72996;40.206;44.498;2024-03-29T05:21:36;21.40;;;7.18;;
83115;SDS011;72996;40.206;44.498;2024-03-29T05:24:02;17.90;;;7.32;;
83115;SDS011;72996;40.206;44.498;2024-03-29T05:26:28;17.73;;;6.93;;
83115;SDS011;72996;40.206;44.498;2024-03-29T05:28:54;15.45;;;7.65;;
83115;SDS011;72996;40.206;44.498;2024-03-29T05:31:22;17.63;;;7.32;;
83115;SDS011;72996;40.206;44.498;2024-03-29T05:33:48;14.38;;;7.93;;
83115;SDS011;72996;40.206;44.498;2024-03-29T05:36:14;17.30;;;8.35;;
83115;SDS011;72996;40.206;44.498;2024-03-29T05:38:40;18.95;;;8.43;;
83115;SDS011;72996;40.206;44.498;2024-03-29T05:41:06;17.55;;;7.25;;
83115;SDS011;72996;40.206;44.498;2024-03-29T05:43:31;16.02;;;8.18;;
83115;SDS011;72996;40.206;44.498;2024-03-29T05:46:00;16.55;;;7.13;;
83115;SDS011;72996;40.206;44.498;2024-03-29T05:48:26;16.08;;;7.47;;
83115;SDS011;72996;40.206;44.498;2024-03-29T05:50:56;14.52;;;6.70;;
83115;SDS011;72996;40.206;44.498;2024-03-29T05:53:22;24.52;;;10.07;;
83115;SDS011;72996;40.206;44.498;2024-03-29T05:55:47;22.42;;;10.73;;
83115;SDS011;72996;40.206;44.498;2024-03-29T05:58:13;21.45;;;11.57;;
83115;SDS011;72996;40.206;44.498;2024-03-29T06:00:43;23.58;;;11.85;;
83115;SDS011;72996;40.206;44.498;2024-03-29T06:03:09;22.45;;;11.23;;
83115;SDS011;72996;40.206;44.498;2024-03-29T06:05:35;23.17;;;11.82;;
83115;SDS011;72996;40.206;44.498;2024-03-29T06:08:01;24.77;;;13.45;;
83115;SDS011;72996;40.206;44.498;2024-03-29T06:10:35;23.55;;;12.07;;
83115;SDS011;72996;40.206;44.498;2024-03-29T06:13:01;18.40;;;10.68;;
83115;SDS011;72996;40.206;44.498;2024-03-29T06:15:33;23.50;;;11.10;;
83115;SDS011;72996;40.206;44.498;2024-03-29T06:20:44;21.40;;;10.52;;
83115;SDS011;72996;40.206;44.498;2024-03-29T06:23:10;19.42;;;10.48;;
83115;SDS011;72996;40.206;44.498;2024-03-29T06:25:36;23.88;;;12.02;;
83115;SDS011;72996;40.206;44.498;2024-03-29T06:28:02;23.60;;;12.00;;
83115;SDS011;72996;40.206;44.498;2024-03-29T06:30:28;21.55;;;10.82;;
83115;SDS011;72996;40.206;44.498;2024-03-29T06:32:56;21.17;;;11.88;;
83115;SDS011;72996;40.206;44.498;2024-03-29T06:35:22;22.75;;;12.13;;
83115;SDS011;72996;40.206;44.498;2024-03-29T06:37:48;22.67;;;11.32;;
83115;SDS011;72996;40.206;44.498;2024-03-29T06:40:14;21.15;;;11.18;;
83115;SDS011;72996;40.206;44.498;2024-03-29T06:42:40;24.08;;;11.13;;
83115;SDS011;72996;40.206;44.498;2024-03-29T06:45:06;21.52;;;11.45;;
83115;SDS011;72996;40.206;44.498;2024-03-29T06:47:35;22.35;;;11.27;;
83115;SDS011;72996;40.206;44.498;2024-03-29T06:50:01;22.77;;;11.38;;
83115;SDS011;72996;40.206;44.498;2024-03-29T06:52:27;22.77;;;11.32;;
83115;SDS011;72996;40.206;44.498;2024-03-29T06:54:52;21.42;;;12.25;;
83115;SDS011;72996;40.206;44.498;2024-03-29T06:57:18;23.33;;;11.18;;
83115;SDS011;72996;40.206;44.498;2024-03-29T06:59:48;21.15;;;13.30;;
83115;SDS011;72996;40.206;44.498;2024-03-29T07:02:14;22.25;;;10.27;;
83115;SDS011;72996;40.206;44.498;2024-03-29T07:04:39;22.13;;;10.70;;
83115;SDS011;72996;40.206;44.498;2024-03-29T07:07:05;19.73;;;10.55;;
83115;SDS011;72996;40.206;44.498;2024-03-29T07:09:31;23.85;;;11.55;;
83115;SDS011;72996;40.206;44.498;2024-03-29T07:11:56;16.88;;;10.43;;
83115;SDS011;72996;40.206;44.498;2024-03-29T07:14:23;15.00;;;9.30;;
83115;SDS011;72996;40.206;44.498;2024-03-29T07:16:52;24.10;;;11.80;;
83115;SDS011;72996;40.206;44.498;2024-03-29T07:19:18;19.83;;;10.25;;
83115;SDS011;72996;40.206;44.498;2024-03-29T07:21:47;17.50;;;9.80;;
83115;SDS011;72996;40.206;44.498;2024-03-29T07:24:13;22.27;;;13.43;;
83115;SDS011;72996;40.206;44.498;2024-03-29T07:26:39;16.10;;;10.48;;
83115;SDS011;72996;40.206;44.498;2024-03-29T07:29:05;18.77;;;9.98;;
83115;SDS011;72996;40.206;44.498;2024-03-29T07:31:32;17.70;;;9.07;;
83115;SDS011;72996;40.206;44.498;2024-03-29T07:33:59;22.00;;;11.23;;
83115;SDS011;72996;40.206;44.498;2024-03-29T07:36:25;18.00;;;9.68;;
83115;SDS011;72996;40.206;44.498;2024-03-29T07:38:52;18.92;;;9.10;;
83115;SDS011;72996;40.206;44.498;2024-03-29T07:41:18;17.67;;;9.48;;
83115;SDS011;72996;40.206;44.498;2024-03-29T07:43:53;15.27;;;9.10;;
83115;SDS011;72996;40.206;44.498;2024-03-29T07:46:22;19.48;;;10.35;;
83115;SDS011;72996;40.206;44.498;2024-03-29T07:48:49;19.70;;;10.02;;
83115;SDS011;72996;40.206;44.498;2024-03-29T07:51:15;17.92;;;8.95;;
83115;SDS011;72996;40.206;44.498;2024-03-29T07:53:43;17.42;;;8.65;;
83115;SDS011;72996;40.206;44.498;2024-03-29T07:56:09;18.02;;;9.80;;
83115;SDS011;72996;40.206;44.498;2024-03-29T07:58:34;15.68;;;8.55;;
83115;SDS011;72996;40.206;44.498;2024-03-29T08:01:00;15.18;;;6.95;;
83115;SDS011;72996;40.206;44.498;2024-03-29T08:03:26;14.50;;;7.32;;
83115;SDS011;72996;40.206;44.498;2024-03-29T08:06:01;8.93;;;4.97;;
83115;SDS011;72996;40.206;44.498;2024-03-29T08:08:31;11.55;;;6.18;;
83115;SDS011;72996;40.206;44.498;2024-03-29T08:11:00;13.48;;;6.45;;
83115;SDS011;72996;40.206;44.498;2024-03-29T08:13:26;11.95;;;6.72;;
83115;SDS011;72996;40.206;44.498;2024-03-29T08:15:58;15.82;;;8.25;;
83115;SDS011;72996;40.206;44.498;2024-03-29T08:18:25;16.20;;;9.65;;
83115;SDS011;72996;40.206;44.498;2024-03-29T08:20:52;13.30;;;6.90;;
83115;SDS011;72996;40.206;44.498;2024-03-29T08:23:20;12.93;;;7.28;;
83115;SDS011;72996;40.206;44.498;2024-03-29T08:25:46;12.95;;;6.47;;
83115;SDS011;72996;40.206;44.498;2024-03-29T08:28:13;11.50;;;6.50;;
83115;SDS011;72996;40.206;44.498;2024-03-29T08:30:39;15.70;;;6.95;;
83115;SDS011;72996;40.206;44.498;2024-03-29T08:33:05;10.55;;;5.55;;
83115;SDS011;72996;40.206;44.498;2024-03-29T08:35:34;11.00;;;5.93;;
83115;SDS011;72996;40.206;44.498;2024-03-29T08:38:06;15.80;;;6.63;;
83115;SDS011;72996;40.206;44.498;2024-03-29T08:40:32;12.43;;;5.97;;
83115;SDS011;72996;40.206;44.498;2024-03-29T08:43:03;15.13;;;6.00;;
83115;SDS011;72996;40.206;44.498;2024-03-29T08:45:29;9.85;;;5.43;;
83115;SDS011;72996;40.206;44.498;2024-03-29T08:47:55;8.98;;;5.45;;
83115;SDS011;72996;40.206;44.498;2024-03-29T08:50:20;11.50;;;6.00;;
83115;SDS011;72996;40.206;44.498;2024-03-29T08:52:46;8.68;;;5.35;;
83115;SDS011;72996;40.206;44.498;2024-03-29T08:55:12;10.30;;;5.80;;
83115;SDS011;72996;40.206;44.498;2024-03-29T08:57:37;10.38;;;5.97;;
83115;SDS011;72996;40.206;44.498;2024-03-29T09:00:10;10.85;;;5.95;;
83115;SDS011;72996;40.206;44.498;2024-03-29T09:02:36;9.48;;;6.30;;
83115;SDS011;72996;40.206;44.498;2024-03-29T09:05:02;11.52;;;6.57;;
83115;SDS011;72996;40.206;44.498;2024-03-29T09:07:27;12.82;;;6.88;;
83115;SDS011;72996;40.206;44.498;2024-03-29T09:09:53;13.25;;;6.90;;
83115;SDS011;72996;40.206;44.498;2024-03-29T09:12:19;11.43;;;6.80;;
83115;SDS011;72996;40.206;44.498;2024-03-29T09:14:45;11.93;;;7.05;;
83115;SDS011;72996;40.206;44.498;2024-03-29T09:17:11;11.73;;;6.50;;
83115;SDS011;72996;40.206;44.498;2024-03-29T09:19:37;13.95;;;6.25;;
83115;SDS011;72996;40.206;44.498;2024-03-29T09:22:02;11.55;;;6.60;;
83115;SDS011;72996;40.206;44.498;2024-03-29T09:24:28;10.30;;;6.20;;
83115;SDS011;72996;40.206;44.498;2024-03-29T09:26:54;11.88;;;6.15;;
83115;SDS011;72996;40.206;44.498;2024-03-29T09:29:20;12.20;;;7.22;;
83115;SDS011;72996;40.206;44.498;2024-03-29T09:31:46;13.00;;;7.43;;
83115;SDS011;72996;40.206;44.498;2024-03-29T09:34:12;12.75;;;7.53;;
83115;SDS011;72996;40.206;44.498;2024-03-29T09:36:38;16.55;;;8.32;;
83115;SDS011;72996;40.206;44.498;2024-03-29T09:39:04;14.10;;;8.55;;
83115;SDS011;72996;40.206;44.498;2024-03-29T09:41:29;14.95;;;7.60;;
83115;SDS011;72996;40.206;44.498;2024-03-29T09:43:57;11.63;;;7.10;;
83115;SDS011;72996;40.206;44.498;2024-03-29T09:46:27;12.98;;;8.18;;
83115;SDS011;72996;40.206;44.498;2024-03-29T09:48:54;15.55;;;7.97;;
83115;SDS011;72996;40.206;44.498;2024-03-29T09:51:21;13.68;;;7.15;;
83115;SDS011;72996;40.206;44.498;2024-03-29T09:53:46;13.93;;;7.35;;
83115;SDS011;72996;40.206;44.498;2024-03-29T09:56:13;19.27;;;13.50;;
83115;SDS011;72996;40.206;44.498;2024-03-29T09:58:39;16.10;;;7.35;;
83115;SDS011;72996;40.206;44.498;2024-03-29T10:01:06;13.18;;;6.80;;
83115;SDS011;72996;40.206;44.498;2024-03-29T10:03:36;14.60;;;8.20;;
83115;SDS011;72996;40.206;44.498;2024-03-29T10:06:07;14.30;;;7.50;;
83115;SDS011;72996;40.206;44.498;2024-03-29T10:08:38;15.43;;;7.78;;
83115;SDS011;72996;40.206;44.498;2024-03-29T10:11:04;12.90;;;7.15;;
83115;SDS011;72996;40.206;44.498;2024-03-29T10:13:29;13.13;;;7.53;;
83115;SDS011;72996;40.206;44.498;2024-03-29T10:15:55;12.48;;;7.32;;
83115;SDS011;72996;40.206;44.498;2024-03-29T10:18:28;10.93;;;6.40;;
83115;SDS011;72996;40.206;44.498;2024-03-29T10:21:02;12.75;;;6.60;;
83115;SDS011;72996;40.206;44.498;2024-03-29T10:23:29;12.73;;;5.80;;
83115;SDS011;72996;40.206;44.498;2024-03-29T10:25:56;12.25;;;6.13;;
83115;SDS011;72996;40.206;44.498;2024-03-29T10:28:22;12.70;;;5.55;;
83115;SDS011;72996;40.206;44.498;2024-03-29T10:30:48;16.40;;;6.72;;
83115;SDS011;72996;40.206;44.498;2024-03-29T10:33:15;11.23;;;6.00;;
83115;SDS011;72996;40.206;44.498;2024-03-29T10:35:42;9.93;;;5.40;;
83115;SDS011;72996;40.206;44.498;2024-03-29T10:38:11;9.95;;;5.22;;
83115;SDS011;72996;40.206;44.498;2024-03-29T10:40:39;13.20;;;5.70;;
83115;SDS011;72996;40.206;44.498;2024-03-29T10:43:09;14.05;;;5.50;;
83115;SDS011;72996;40.206;44.498;2024-03-29T10:45:41;11.13;;;5.30;;
83115;SDS011;72996;40.206;44.498;2024-03-29T10:48:10;11.23;;;5.45;;
83115;SDS011;72996;40.206;44.498;2024-03-29T10:50:36;13.75;;;6.63;;
83115;SDS011;72996;40.206;44.498;2024-03-29T10:53:04;11.25;;;5.85;;
83115;SDS011;72996;40.206;44.498;2024-03-29T10:55:30;19.35;;;6.93;;
83115;SDS011;72996;40.206;44.498;2024-03-29T10:58:00;11.35;;;6.65;;
83115;SDS011;72996;40.206;44.498;2024-03-29T11:00:32;14.27;;;6.30;;
83115;SDS011;72996;40.206;44.498;2024-03-29T11:03:08;11.20;;;5.72;;
83115;SDS011;72996;40.206;44.498;2024-03-29T11:05:47;15.48;;;7.97;;
83115;SDS011;72996;40.206;44.498;2024-03-29T11:08:19;15.30;;;7.85;;
83115;SDS011;72996;40.206;44.498;2024-03-29T11:10:51;14.02;;;6.55;;
83115;SDS011;72996;40.206;44.498;2024-03-29T11:13:33;14.48;;;5.72;;
83115;SDS011;72996;40.206;44.498;2024-03-29T11:16:06;15.27;;;6.00;;
83115;SDS011;72996;40.206;44.498;2024-03-29T11:18:32;16.00;;;8.40;;
83115;SDS011;72996;40.206;44.498;2024-03-29T11:21:00;16.23;;;5.93;;
83115;SDS011;72996;40.206;44.498;2024-03-29T11:23:31;13.25;;;5.70;;
83115;SDS011;72996;40.206;44.498;2024-03-29T11:25:57;19.75;;;5.72;;
83115;SDS011;72996;40.206;44.498;2024-03-29T11:28:31;15.38;;;5.78;;
83115;SDS011;72996;40.206;44.498;2024-03-29T11:31:03;13.07;;;5.45;;
83115;SDS011;72996;40.206;44.498;2024-03-29T11:35:58;12.27;;;4.78;;
83115;SDS011;72996;40.206;44.498;2024-03-29T11:38:33;13.25;;;5.30;;
83115;SDS011;72996;40.206;44.498;2024-03-29T11:41:07;11.68;;;5.20;;
83115;SDS011;72996;40.206;44.498;2024-03-29T11:43:37;11.23;;;4.13;;
83115;SDS011;72996;40.206;44.498;2024-03-29T11:46:07;11.73;;;5.28;;
83115;SDS011;72996;40.206;44.498;2024-03-29T11:48:34;12.68;;;4.60;;
83115;SDS011;72996;40.206;44.498;2024-03-29T11:51:00;13.00;;;4.38;;
83115;SDS011;72996;40.206;44.498;2024-03-29T11:55:55;10.60;;;3.60;;
83115;SDS011;72996;40.206;44.498;2024-03-29T11:58:22;9.82;;;3.90;;
83115;SDS011;72996;40.206;44.498;2024-03-29T12:00:52;11.68;;;4.55;;
83115;SDS011;72996;40.206;44.498;2024-03-29T12:03:19;11.30;;;3.88;;
83115;SDS011;72996;40.206;44.498;2024-03-29T12:05:47;14.00;;;4.35;;
83115;SDS011;72996;40.206;44.498;2024-03-29T12:08:14;13.85;;;6.15;;
83115;SDS011;72996;40.206;44.498;2024-03-29T12:10:40;10.88;;;3.97;;
83115;SDS011;72996;40.206;44.498;2024-03-29T12:13:06;12.27;;;4.00;;
83115;SDS011;72996;40.206;44.498;2024-03-29T12:15:33;11.63;;;4.28;;
83115;SDS011;72996;40.206;44.498;2024-03-29T12:18:00;9.15;;;4.20;;
83115;SDS011;72996;40.206;44.498;2024-03-29T12:20:31;11.43;;;3.90;;
83115;SDS011;72996;40.206;44.498;2024-03-29T12:23:04;13.52;;;4.63;;
83115;SDS011;72996;40.206;44.498;2024-03-29T12:25:32;12.13;;;4.13;;
83115;SDS011;72996;40.206;44.498;2024-03-29T12:27:59;13.63;;;4.25;;
83115;SDS011;72996;40.206;44.498;2024-03-29T12:30:25;12.98;;;4.22;;
83115;SDS011;72996;40.206;44.498;2024-03-29T12:33:02;13.00;;;4.65;;
83115;SDS011;72996;40.206;44.498;2024-03-29T12:35:33;16.63;;;4.75;;
83115;SDS011;72996;40.206;44.498;2024-03-29T12:38:00;12.48;;;4.40;;
83115;SDS011;72996;40.206;44.498;2024-03-29T12:40:27;11.52;;;3.97;;
83115;SDS011;72996;40.206;44.498;2024-03-29T12:42:55;14.63;;;4.53;;
83115;SDS011;72996;40.206;44.498;2024-03-29T12:45:22;16.73;;;5.18;;
83115;SDS011;72996;40.206;44.498;2024-03-29T12:47:48;12.20;;;5.50;;
83115;SDS011;72996;40.206;44.498;2024-03-29T12:50:19;17.20;;;6.10;;
83115;SDS011;72996;40.206;44.498;2024-03-29T12:52:48;16.42;;;4.32;;
83115;SDS011;72996;40.206;44.498;2024-03-29T12:55:13;13.55;;;4.03;;
83115;SDS011;72996;40.206;44.498;2024-03-29T12:57:43;15.40;;;4.40;;
83115;SDS011;72996;40.206;44.498;2024-03-29T13:00:09;14.48;;;4.28;;
83115;SDS011;72996;40.206;44.498;2024-03-29T13:02:38;12.98;;;4.65;;
83115;SDS011;72996;40.206;44.498;2024-03-29T13:05:04;16.90;;;4.40;;
83115;SDS011;72996;40.206;44.498;2024-03-29T13:07:30;14.60;;;4.30;;
83115;SDS011;72996;40.206;44.498;2024-03-29T13:09:57;11.63;;;3.55;;
83115;SDS011;72996;40.206;44.498;2024-03-29T13:12:39;13.40;;;4.75;;
83115;SDS011;72996;40.206;44.498;2024-03-29T13:15:41;12.02;;;4.53;;
83115;SDS011;72996;40.206;44.498;2024-03-29T13:18:01;15.65;;;4.40;;
83115;SDS011;72996;40.206;44.498;2024-03-29T13:20:29;15.10;;;4.93;;
83115;SDS011;72996;40.206;44.498;2024-03-29T13:22:55;14.55;;;4.38;;
83115;SDS011;72996;40.206;44.498;2024-03-29T13:25:23;13.75;;;5.72;;
83115;SDS011;72996;40.206;44.498;2024-03-29T13:27:50;13.63;;;4.65;;
83115;SDS011;72996;40.206;44.498;2024-03-29T13:30:20;12.23;;;4.63;;
83115;SDS011;72996;40.206;44.498;2024-03-29T13:32:49;17.17;;;4.47;;
83115;SDS011;72996;40.206;44.498;2024-03-29T13:35:15;13.43;;;5.25;;
83115;SDS011;72996;40.206;44.498;2024-03-29T13:37:42;15.13;;;4.18;;
83115;SDS011;72996;40.206;44.498;2024-03-29T13:40:09;13.95;;;4.07;;
83115;SDS011;72996;40.206;44.498;2024-03-29T13:42:36;12.93;;;4.35;;
83115;SDS011;72996;40.206;44.498;2024-03-29T13:45:02;16.90;;;5.43;;
83115;SDS011;72996;40.206;44.498;2024-03-29T13:47:30;12.13;;;4.78;;
83115;SDS011;72996;40.206;44.498;2024-03-29T13:49:58;13.93;;;4.50;;
83115;SDS011;72996;40.206;44.498;2024-03-29T13:52:24;10.15;;;3.67;;
83115;SDS011;72996;40.206;44.498;2024-03-29T13:54:52;16.52;;;4.40;;
83115;SDS011;72996;40.206;44.498;2024-03-29T13:57:17;13.63;;;4.80;;
83115;SDS011;72996;40.206;44.498;2024-03-29T13:59:44;11.85;;;4.80;;
83115;SDS011;72996;40.206;44.498;2024-03-29T14:02:11;15.70;;;5.07;;
83115;SDS011;72996;40.206;44.498;2024-03-29T14:04:39;14.20;;;5.00;;
83115;SDS011;72996;40.206;44.498;2024-03-29T14:07:05;12.25;;;5.20;;
83115;SDS011;72996;40.206;44.498;2024-03-29T14:09:36;13.27;;;4.53;;
83115;SDS011;72996;40.206;44.498;2024-03-29T14:12:10;12.65;;;6.57;;
83115;SDS011;72996;40.206;44.498;2024-03-29T14:14:37;14.07;;;5.82;;
83115;SDS011;72996;40.206;44.498;2024-03-29T14:17:03;11.82;;;4.90;;
83115;SDS011;72996;40.206;44.498;2024-03-29T14:19:31;14.50;;;4.95;;
83115;SDS011;72996;40.206;44.498;2024-03-29T14:21:59;15.70;;;5.40;;
83115;SDS011;72996;40.206;44.498;2024-03-29T14:24:25;13.30;;;5.20;;
83115;SDS011;72996;40.206;44.498;2024-03-29T14:26:52;18.35;;;5.70;;
83115;SDS011;72996;40.206;44.498;2024-03-29T14:29:18;14.68;;;5.32;;
83115;SDS011;72996;40.206;44.498;2024-03-29T14:31:49;18.42;;;4.97;;